Terminal Aerodrome Forecast
Issued by NWS

Home | Current Version | Previous Version | Text Only | Print | Product List | Glossary On
Versions: 1 2 3 4 5 6 7 8 9 10 11 12 13 14 15 16
000
FTUS46 KLOX 281136
TAFLGB
TAF
KLGB 281136Z 2812/2912 29006KT P6SM OVC015
     FM281600 18008KT P6SM SCT015
     FM290200 29008KT P6SM SKC
     FM290600 VRB03KT P6SM SKC
     FM291000 VRB03KT P6SM OVC008=

USA.gov is the U.S. government's official web portal to all federal, state and local government web resources and services.